sensor_id;sensor_type;location;lat;lon;timestamp;P1;durP1;ratioP1;P2;durP2;ratioP2
6344;SDS011;3205;42.666;23.264;2023-08-30T00:01:55;12.20;;;7.78;;
6344;SDS011;3205;42.666;23.264;2023-08-30T00:04:22;9.07;;;7.50;;
6344;SDS011;3205;42.666;23.264;2023-08-30T00:06:48;9.88;;;7.85;;
6344;SDS011;3205;42.666;23.264;2023-08-30T00:09:14;10.00;;;7.22;;
6344;SDS011;3205;42.666;23.264;2023-08-30T00:11:41;14.07;;;7.47;;
6344;SDS011;3205;42.666;23.264;2023-08-30T00:14:07;8.93;;;6.28;;
6344;SDS011;3205;42.666;23.264;2023-08-30T00:16:34;10.32;;;6.72;;
6344;SDS011;3205;42.666;23.264;2023-08-30T00:19:00;9.10;;;6.97;;
6344;SDS011;3205;42.666;23.264;2023-08-30T00:21:26;10.88;;;6.35;;
6344;SDS011;3205;42.666;23.264;2023-08-30T00:23:52;8.57;;;5.93;;
6344;SDS011;3205;42.666;23.264;2023-08-30T00:26:18;11.60;;;6.07;;
6344;SDS011;3205;42.666;23.264;2023-08-30T00:28:45;10.52;;;6.85;;
6344;SDS011;3205;42.666;23.264;2023-08-30T00:31:11;8.90;;;6.20;;
6344;SDS011;3205;42.666;23.264;2023-08-30T00:33:37;11.77;;;6.88;;
6344;SDS011;3205;42.666;23.264;2023-08-30T00:36:04;7.25;;;6.35;;
6344;SDS011;3205;42.666;23.264;2023-08-30T00:38:30;7.85;;;5.88;;
6344;SDS011;3205;42.666;23.264;2023-08-30T00:40:59;8.00;;;5.78;;
6344;SDS011;3205;42.666;23.264;2023-08-30T00:43:25;9.23;;;6.38;;
6344;SDS011;3205;42.666;23.264;2023-08-30T00:45:52;9.70;;;6.90;;
6344;SDS011;3205;42.666;23.264;2023-08-30T00:48:18;14.93;;;8.02;;
6344;SDS011;3205;42.666;23.264;2023-08-30T00:50:45;8.43;;;7.05;;
6344;SDS011;3205;42.666;23.264;2023-08-30T00:53:12;14.07;;;7.30;;
6344;SDS011;3205;42.666;23.264;2023-08-30T00:55:38;13.15;;;6.88;;
6344;SDS011;3205;42.666;23.264;2023-08-30T00:58:05;9.57;;;7.28;;
6344;SDS011;3205;42.666;23.264;2023-08-30T01:00:33;11.20;;;7.70;;
6344;SDS011;3205;42.666;23.264;2023-08-30T01:03:00;14.15;;;8.00;;
6344;SDS011;3205;42.666;23.264;2023-08-30T01:05:26;10.77;;;8.13;;
6344;SDS011;3205;42.666;23.264;2023-08-30T01:07:52;8.30;;;7.18;;
6344;SDS011;3205;42.666;23.264;2023-08-30T01:10:19;10.27;;;7.80;;
6344;SDS011;3205;42.666;23.264;2023-08-30T01:12:53;13.35;;;7.72;;
6344;SDS011;3205;42.666;23.264;2023-08-30T01:15:27;10.63;;;6.97;;
6344;SDS011;3205;42.666;23.264;2023-08-30T01:17:54;8.57;;;6.82;;
6344;SDS011;3205;42.666;23.264;2023-08-30T01:20:21;7.43;;;6.03;;
6344;SDS011;3205;42.666;23.264;2023-08-30T01:22:54;11.43;;;6.97;;
6344;SDS011;3205;42.666;23.264;2023-08-30T01:25:30;11.38;;;6.43;;
6344;SDS011;3205;42.666;23.264;2023-08-30T01:28:04;12.30;;;6.38;;
6344;SDS011;3205;42.666;23.264;2023-08-30T01:30:32;10.07;;;6.40;;
6344;SDS011;3205;42.666;23.264;2023-08-30T01:33:02;10.07;;;6.55;;
6344;SDS011;3205;42.666;23.264;2023-08-30T01:35:30;9.35;;;6.05;;
6344;SDS011;3205;42.666;23.264;2023-08-30T01:37:58;9.05;;;6.70;;
6344;SDS011;3205;42.666;23.264;2023-08-30T01:40:25;7.95;;;5.93;;
6344;SDS011;3205;42.666;23.264;2023-08-30T01:42:55;10.32;;;5.28;;
6344;SDS011;3205;42.666;23.264;2023-08-30T01:45:24;10.68;;;6.28;;
6344;SDS011;3205;42.666;23.264;2023-08-30T01:47:51;15.48;;;5.88;;
6344;SDS011;3205;42.666;23.264;2023-08-30T01:50:18;14.38;;;5.50;;
6344;SDS011;3205;42.666;23.264;2023-08-30T01:52:46;11.45;;;5.93;;
6344;SDS011;3205;42.666;23.264;2023-08-30T01:55:13;11.38;;;6.07;;
6344;SDS011;3205;42.666;23.264;2023-08-30T01:57:40;10.95;;;6.20;;
6344;SDS011;3205;42.666;23.264;2023-08-30T02:00:07;10.15;;;6.40;;
6344;SDS011;3205;42.666;23.264;2023-08-30T02:02:35;11.07;;;6.35;;
6344;SDS011;3205;42.666;23.264;2023-08-30T02:05:01;8.27;;;6.20;;
6344;SDS011;3205;42.666;23.264;2023-08-30T02:07:28;8.52;;;5.50;;
6344;SDS011;3205;42.666;23.264;2023-08-30T02:10:02;9.10;;;5.18;;
6344;SDS011;3205;42.666;23.264;2023-08-30T02:12:34;10.00;;;5.60;;
6344;SDS011;3205;42.666;23.264;2023-08-30T02:15:08;12.35;;;5.95;;
6344;SDS011;3205;42.666;23.264;2023-08-30T02:17:36;8.48;;;5.18;;
6344;SDS011;3205;42.666;23.264;2023-08-30T02:20:03;9.45;;;6.03;;
6344;SDS011;3205;42.666;23.264;2023-08-30T02:22:31;12.52;;;6.05;;
6344;SDS011;3205;42.666;23.264;2023-08-30T02:24:58;9.20;;;5.63;;
6344;SDS011;3205;42.666;23.264;2023-08-30T02:27:24;10.07;;;5.78;;
6344;SDS011;3205;42.666;23.264;2023-08-30T02:29:50;13.85;;;6.30;;
6344;SDS011;3205;42.666;23.264;2023-08-30T02:32:16;6.85;;;5.63;;
6344;SDS011;3205;42.666;23.264;2023-08-30T02:34:49;13.57;;;6.57;;
6344;SDS011;3205;42.666;23.264;2023-08-30T02:37:16;8.60;;;5.63;;
6344;SDS011;3205;42.666;23.264;2023-08-30T02:39:42;8.65;;;6.00;;
6344;SDS011;3205;42.666;23.264;2023-08-30T02:42:08;10.88;;;6.10;;
6344;SDS011;3205;42.666;23.264;2023-08-30T02:44:34;13.27;;;6.72;;
6344;SDS011;3205;42.666;23.264;2023-08-30T02:47:00;10.80;;;5.55;;
6344;SDS011;3205;42.666;23.264;2023-08-30T02:49:27;8.32;;;5.45;;
6344;SDS011;3205;42.666;23.264;2023-08-30T02:51:53;10.32;;;5.93;;
6344;SDS011;3205;42.666;23.264;2023-08-30T02:54:19;10.60;;;5.93;;
6344;SDS011;3205;42.666;23.264;2023-08-30T02:56:47;12.25;;;6.20;;
6344;SDS011;3205;42.666;23.264;2023-08-30T02:59:14;11.38;;;5.82;;
6344;SDS011;3205;42.666;23.264;2023-08-30T03:01:40;13.77;;;6.60;;
6344;SDS011;3205;42.666;23.264;2023-08-30T03:04:06;9.63;;;6.75;;
6344;SDS011;3205;42.666;23.264;2023-08-30T03:06:33;8.75;;;6.30;;
6344;SDS011;3205;42.666;23.264;2023-08-30T03:09:00;13.55;;;6.10;;
6344;SDS011;3205;42.666;23.264;2023-08-30T03:11:27;12.40;;;6.22;;
6344;SDS011;3205;42.666;23.264;2023-08-30T03:13:53;14.50;;;5.82;;
6344;SDS011;3205;42.666;23.264;2023-08-30T03:16:20;9.57;;;5.55;;
6344;SDS011;3205;42.666;23.264;2023-08-30T03:18:46;10.15;;;5.72;;
6344;SDS011;3205;42.666;23.264;2023-08-30T03:21:13;8.95;;;5.68;;
6344;SDS011;3205;42.666;23.264;2023-08-30T03:23:39;9.15;;;6.13;;
6344;SDS011;3205;42.666;23.264;2023-08-30T03:26:10;13.68;;;5.30;;
6344;SDS011;3205;42.666;23.264;2023-08-30T03:28:37;7.13;;;4.97;;
6344;SDS011;3205;42.666;23.264;2023-08-30T03:31:10;10.82;;;5.75;;
6344;SDS011;3205;42.666;23.264;2023-08-30T03:33:40;7.22;;;5.07;;
6344;SDS011;3205;42.666;23.264;2023-08-30T03:36:07;7.30;;;5.70;;
6344;SDS011;3205;42.666;23.264;2023-08-30T03:38:34;9.07;;;5.40;;
6344;SDS011;3205;42.666;23.264;2023-08-30T03:41:00;8.25;;;5.65;;
6344;SDS011;3205;42.666;23.264;2023-08-30T03:43:26;16.50;;;5.68;;
6344;SDS011;3205;42.666;23.264;2023-08-30T03:46:00;11.80;;;4.95;;
6344;SDS011;3205;42.666;23.264;2023-08-30T03:48:26;8.10;;;4.43;;
6344;SDS011;3205;42.666;23.264;2023-08-30T03:50:53;8.73;;;5.55;;
6344;SDS011;3205;42.666;23.264;2023-08-30T03:53:20;12.00;;;5.55;;
6344;SDS011;3205;42.666;23.264;2023-08-30T03:55:46;11.45;;;6.07;;
6344;SDS011;3205;42.666;23.264;2023-08-30T03:58:12;8.10;;;4.57;;
6344;SDS011;3205;42.666;23.264;2023-08-30T04:00:39;9.75;;;5.03;;
6344;SDS011;3205;42.666;23.264;2023-08-30T04:03:05;12.63;;;5.57;;
6344;SDS011;3205;42.666;23.264;2023-08-30T04:05:34;9.10;;;5.22;;
6344;SDS011;3205;42.666;23.264;2023-08-30T04:08:00;11.13;;;5.18;;
6344;SDS011;3205;42.666;23.264;2023-08-30T04:10:27;9.90;;;4.85;;
6344;SDS011;3205;42.666;23.264;2023-08-30T04:12:53;12.02;;;5.10;;
6344;SDS011;3205;42.666;23.264;2023-08-30T04:15:19;10.07;;;4.75;;
6344;SDS011;3205;42.666;23.264;2023-08-30T04:17:45;11.90;;;4.78;;
6344;SDS011;3205;42.666;23.264;2023-08-30T04:20:12;8.85;;;5.18;;
6344;SDS011;3205;42.666;23.264;2023-08-30T04:22:38;11.38;;;4.68;;
6344;SDS011;3205;42.666;23.264;2023-08-30T04:25:04;8.52;;;4.40;;
6344;SDS011;3205;42.666;23.264;2023-08-30T04:27:32;9.05;;;4.75;;
6344;SDS011;3205;42.666;23.264;2023-08-30T04:29:58;15.10;;;4.38;;
6344;SDS011;3205;42.666;23.264;2023-08-30T04:32:24;11.57;;;4.90;;
6344;SDS011;3205;42.666;23.264;2023-08-30T04:34:51;9.27;;;4.60;;
6344;SDS011;3205;42.666;23.264;2023-08-30T04:37:17;8.77;;;4.30;;
6344;SDS011;3205;42.666;23.264;2023-08-30T04:39:46;10.60;;;4.38;;
6344;SDS011;3205;42.666;23.264;2023-08-30T04:42:13;13.75;;;4.05;;
6344;SDS011;3205;42.666;23.264;2023-08-30T04:44:39;12.68;;;4.25;;
6344;SDS011;3205;42.666;23.264;2023-08-30T04:47:05;10.57;;;4.28;;
6344;SDS011;3205;42.666;23.264;2023-08-30T04:49:31;8.98;;;3.63;;
6344;SDS011;3205;42.666;23.264;2023-08-30T04:51:58;7.35;;;3.38;;
6344;SDS011;3205;42.666;23.264;2023-08-30T04:54:24;8.68;;;3.50;;
6344;SDS011;3205;42.666;23.264;2023-08-30T04:56:50;22.52;;;5.88;;
6344;SDS011;3205;42.666;23.264;2023-08-30T04:59:16;16.73;;;4.78;;
6344;SDS011;3205;42.666;23.264;2023-08-30T05:01:42;8.63;;;3.35;;
6344;SDS011;3205;42.666;23.264;2023-08-30T05:04:09;20.75;;;4.18;;
6344;SDS011;3205;42.666;23.264;2023-08-30T05:06:35;13.07;;;3.92;;
6344;SDS011;3205;42.666;23.264;2023-08-30T05:09:02;8.52;;;4.00;;
6344;SDS011;3205;42.666;23.264;2023-08-30T05:11:29;12.45;;;4.03;;
6344;SDS011;3205;42.666;23.264;2023-08-30T05:13:55;6.30;;;3.92;;
6344;SDS011;3205;42.666;23.264;2023-08-30T05:16:21;10.93;;;4.47;;
6344;SDS011;3205;42.666;23.264;2023-08-30T05:18:54;8.63;;;3.75;;
6344;SDS011;3205;42.666;23.264;2023-08-30T05:21:20;4.90;;;3.20;;
6344;SDS011;3205;42.666;23.264;2023-08-30T05:23:46;10.50;;;3.28;;
6344;SDS011;3205;42.666;23.264;2023-08-30T05:26:13;6.72;;;3.55;;
6344;SDS011;3205;42.666;23.264;2023-08-30T05:28:41;9.45;;;3.42;;
6344;SDS011;3205;42.666;23.264;2023-08-30T05:31:08;9.82;;;3.88;;
6344;SDS011;3205;42.666;23.264;2023-08-30T05:33:34;10.05;;;3.65;;
6344;SDS011;3205;42.666;23.264;2023-08-30T05:36:00;7.47;;;3.70;;
6344;SDS011;3205;42.666;23.264;2023-08-30T05:38:27;8.35;;;3.70;;
6344;SDS011;3205;42.666;23.264;2023-08-30T05:40:53;9.05;;;3.17;;
6344;SDS011;3205;42.666;23.264;2023-08-30T05:43:20;3.70;;;3.10;;
6344;SDS011;3205;42.666;23.264;2023-08-30T05:45:46;6.10;;;3.78;;
6344;SDS011;3205;42.666;23.264;2023-08-30T05:48:13;9.07;;;3.80;;
6344;SDS011;3205;42.666;23.264;2023-08-30T05:50:39;9.88;;;3.40;;
6344;SDS011;3205;42.666;23.264;2023-08-30T05:53:05;11.98;;;3.38;;
6344;SDS011;3205;42.666;23.264;2023-08-30T05:55:32;6.50;;;3.13;;
6344;SDS011;3205;42.666;23.264;2023-08-30T05:57:58;15.93;;;3.50;;
6344;SDS011;3205;42.666;23.264;2023-08-30T06:00:24;14.55;;;4.35;;
6344;SDS011;3205;42.666;23.264;2023-08-30T06:02:51;14.57;;;3.85;;
6344;SDS011;3205;42.666;23.264;2023-08-30T06:05:17;8.07;;;3.30;;
6344;SDS011;3205;42.666;23.264;2023-08-30T06:07:43;7.13;;;3.30;;
6344;SDS011;3205;42.666;23.264;2023-08-30T06:10:10;9.00;;;3.70;;
6344;SDS011;3205;42.666;23.264;2023-08-30T06:12:36;4.50;;;2.88;;
6344;SDS011;3205;42.666;23.264;2023-08-30T06:15:02;5.60;;;2.72;;
6344;SDS011;3205;42.666;23.264;2023-08-30T06:17:30;9.32;;;3.38;;
6344;SDS011;3205;42.666;23.264;2023-08-30T06:19:56;16.02;;;4.18;;
6344;SDS011;3205;42.666;23.264;2023-08-30T06:22:22;23.05;;;5.70;;
6344;SDS011;3205;42.666;23.264;2023-08-30T06:24:48;7.05;;;3.13;;
6344;SDS011;3205;42.666;23.264;2023-08-30T06:27:14;4.53;;;2.97;;
6344;SDS011;3205;42.666;23.264;2023-08-30T06:29:40;7.80;;;3.13;;
6344;SDS011;3205;42.666;23.264;2023-08-30T06:32:06;7.18;;;3.70;;
6344;SDS011;3205;42.666;23.264;2023-08-30T06:34:33;7.18;;;3.40;;
6344;SDS011;3205;42.666;23.264;2023-08-30T06:36:59;6.03;;;3.63;;
6344;SDS011;3205;42.666;23.264;2023-08-30T06:39:25;3.67;;;3.00;;
6344;SDS011;3205;42.666;23.264;2023-08-30T06:41:57;4.80;;;3.13;;
6344;SDS011;3205;42.666;23.264;2023-08-30T06:44:23;5.50;;;3.33;;
6344;SDS011;3205;42.666;23.264;2023-08-30T06:46:49;6.07;;;3.15;;
6344;SDS011;3205;42.666;23.264;2023-08-30T06:49:17;6.10;;;3.50;;
6344;SDS011;3205;42.666;23.264;2023-08-30T06:51:44;6.00;;;3.38;;
6344;SDS011;3205;42.666;23.264;2023-08-30T06:54:10;3.67;;;3.00;;
6344;SDS011;3205;42.666;23.264;2023-08-30T06:56:36;6.50;;;3.45;;
6344;SDS011;3205;42.666;23.264;2023-08-30T06:59:02;6.53;;;3.03;;
6344;SDS011;3205;42.666;23.264;2023-08-30T07:01:28;6.45;;;3.63;;
6344;SDS011;3205;42.666;23.264;2023-08-30T07:03:54;8.23;;;3.20;;
6344;SDS011;3205;42.666;23.264;2023-08-30T07:06:21;5.18;;;3.63;;
6344;SDS011;3205;42.666;23.264;2023-08-30T07:08:47;9.82;;;3.88;;
6344;SDS011;3205;42.666;23.264;2023-08-30T07:11:13;11.75;;;4.10;;
6344;SDS011;3205;42.666;23.264;2023-08-30T07:13:40;30.42;;;5.75;;
6344;SDS011;3205;42.666;23.264;2023-08-30T07:16:06;5.97;;;3.53;;
6344;SDS011;3205;42.666;23.264;2023-08-30T07:18:32;6.07;;;3.17;;
6344;SDS011;3205;42.666;23.264;2023-08-30T07:20:58;5.95;;;3.70;;
6344;SDS011;3205;42.666;23.264;2023-08-30T07:23:24;6.70;;;3.80;;
6344;SDS011;3205;42.666;23.264;2023-08-30T07:25:51;16.58;;;4.05;;
6344;SDS011;3205;42.666;23.264;2023-08-30T07:28:18;6.07;;;3.42;;
6344;SDS011;3205;42.666;23.264;2023-08-30T07:30:44;6.00;;;2.80;;
6344;SDS011;3205;42.666;23.264;2023-08-30T07:33:10;10.07;;;3.45;;
6344;SDS011;3205;42.666;23.264;2023-08-30T07:35:36;8.02;;;4.18;;
6344;SDS011;3205;42.666;23.264;2023-08-30T07:38:04;4.90;;;2.97;;
6344;SDS011;3205;42.666;23.264;2023-08-30T07:40:30;5.00;;;3.20;;
6344;SDS011;3205;42.666;23.264;2023-08-30T07:42:57;4.88;;;3.17;;
6344;SDS011;3205;42.666;23.264;2023-08-30T07:45:23;29.58;;;5.90;;
6344;SDS011;3205;42.666;23.264;2023-08-30T07:47:49;9.27;;;2.60;;
6344;SDS011;3205;42.666;23.264;2023-08-30T07:50:15;5.97;;;2.88;;
6344;SDS011;3205;42.666;23.264;2023-08-30T07:52:41;3.70;;;3.00;;
6344;SDS011;3205;42.666;23.264;2023-08-30T07:55:07;3.45;;;2.50;;
6344;SDS011;3205;42.666;23.264;2023-08-30T07:57:34;6.68;;;2.97;;
6344;SDS011;3205;42.666;23.264;2023-08-30T08:00:01;5.10;;;3.05;;
6344;SDS011;3205;42.666;23.264;2023-08-30T08:02:28;3.80;;;2.83;;
6344;SDS011;3205;42.666;23.264;2023-08-30T08:04:54;8.60;;;3.15;;
6344;SDS011;3205;42.666;23.264;2023-08-30T08:07:20;4.07;;;3.35;;
6344;SDS011;3205;42.666;23.264;2023-08-30T08:09:46;8.43;;;3.08;;
6344;SDS011;3205;42.666;23.264;2023-08-30T08:12:12;6.55;;;3.15;;
6344;SDS011;3205;42.666;23.264;2023-08-30T08:14:38;6.03;;;2.67;;
6344;SDS011;3205;42.666;23.264;2023-08-30T08:17:05;5.60;;;3.10;;
6344;SDS011;3205;42.666;23.264;2023-08-30T08:19:31;4.35;;;2.95;;
6344;SDS011;3205;42.666;23.264;2023-08-30T08:21:57;4.95;;;3.38;;
6344;SDS011;3205;42.666;23.264;2023-08-30T08:24:23;4.15;;;3.08;;
6344;SDS011;3205;42.666;23.264;2023-08-30T08:26:50;3.20;;;2.90;;
6344;SDS011;3205;42.666;23.264;2023-08-30T08:29:16;4.45;;;2.80;;
6344;SDS011;3205;42.666;23.264;2023-08-30T08:31:42;4.88;;;2.90;;
6344;SDS011;3205;42.666;23.264;2023-08-30T08:34:09;7.50;;;2.63;;
6344;SDS011;3205;42.666;23.264;2023-08-30T08:36:37;5.00;;;3.10;;
6344;SDS011;3205;42.666;23.264;2023-08-30T08:39:03;7.85;;;3.40;;
6344;SDS011;3205;42.666;23.264;2023-08-30T08:41:31;6.88;;;2.85;;
6344;SDS011;3205;42.666;23.264;2023-08-30T08:44:05;3.75;;;3.10;;
6344;SDS011;3205;42.666;23.264;2023-08-30T08:46:31;4.30;;;2.92;;
6344;SDS011;3205;42.666;23.264;2023-08-30T08:48:59;5.00;;;3.10;;
6344;SDS011;3205;42.666;23.264;2023-08-30T08:51:31;5.68;;;2.50;;
6344;SDS011;3205;42.666;23.264;2023-08-30T08:54:01;6.78;;;3.58;;
6344;SDS011;3205;42.666;23.264;2023-08-30T08:56:29;3.92;;;3.13;;
6344;SDS011;3205;42.666;23.264;2023-08-30T08:58:55;5.00;;;3.85;;
6344;SDS011;3205;42.666;23.264;2023-08-30T09:01:22;6.32;;;4.00;;
6344;SDS011;3205;42.666;23.264;2023-08-30T09:03:48;6.70;;;4.30;;
6344;SDS011;3205;42.666;23.264;2023-08-30T09:06:15;11.95;;;4.82;;
6344;SDS011;3205;42.666;23.264;2023-08-30T09:08:42;5.55;;;4.15;;
6344;SDS011;3205;42.666;23.264;2023-08-30T09:11:08;6.00;;;4.18;;
6344;SDS011;3205;42.666;23.264;2023-08-30T09:13:35;4.88;;;4.38;;
6344;SDS011;3205;42.666;23.264;2023-08-30T09:16:01;4.95;;;4.00;;
6344;SDS011;3205;42.666;23.264;2023-08-30T09:18:28;11.82;;;5.25;;
6344;SDS011;3205;42.666;23.264;2023-08-30T09:21:04;7.80;;;3.90;;
6344;SDS011;3205;42.666;23.264;2023-08-30T09:23:30;7.43;;;4.30;;
6344;SDS011;3205;42.666;23.264;2023-08-30T09:25:57;7.35;;;4.10;;
6344;SDS011;3205;42.666;23.264;2023-08-30T09:28:23;10.02;;;4.63;;
6344;SDS011;3205;42.666;23.264;2023-08-30T09:30:49;8.73;;;4.93;;
6344;SDS011;3205;42.666;23.264;2023-08-30T09:33:16;5.43;;;4.05;;
6344;SDS011;3205;42.666;23.264;2023-08-30T09:35:46;7.57;;;4.13;;
6344;SDS011;3205;42.666;23.264;2023-08-30T09:38:16;9.95;;;4.38;;
6344;SDS011;3205;42.666;23.264;2023-08-30T09:40:43;11.45;;;5.00;;
6344;SDS011;3205;42.666;23.264;2023-08-30T09:43:10;13.00;;;4.65;;
6344;SDS011;3205;42.666;23.264;2023-08-30T09:45:37;7.70;;;4.70;;
6344;SDS011;3205;42.666;23.264;2023-08-30T09:48:03;6.78;;;4.30;;
6344;SDS011;3205;42.666;23.264;2023-08-30T09:50:32;5.88;;;3.72;;
6344;SDS011;3205;42.666;23.264;2023-08-30T09:53:00;21.40;;;4.60;;
6344;SDS011;3205;42.666;23.264;2023-08-30T09:55:31;12.55;;;4.55;;
6344;SDS011;3205;42.666;23.264;2023-08-30T09:57:58;9.52;;;5.07;;
6344;SDS011;3205;42.666;23.264;2023-08-30T10:00:26;6.10;;;4.20;;
6344;SDS011;3205;42.666;23.264;2023-08-30T10:02:53;7.22;;;4.47;;
6344;SDS011;3205;42.666;23.264;2023-08-30T10:05:20;7.40;;;4.20;;
6344;SDS011;3205;42.666;23.264;2023-08-30T10:07:47;7.22;;;4.32;;
6344;SDS011;3205;42.666;23.264;2023-08-30T10:10:14;5.68;;;4.30;;
6344;SDS011;3205;42.666;23.264;2023-08-30T10:12:40;6.78;;;4.22;;
6344;SDS011;3205;42.666;23.264;2023-08-30T10:15:11;7.53;;;4.35;;
6344;SDS011;3205;42.666;23.264;2023-08-30T10:17:38;7.70;;;4.82;;
6344;SDS011;3205;42.666;23.264;2023-08-30T10:20:10;6.65;;;4.43;;
6344;SDS011;3205;42.666;23.264;2023-08-30T10:22:37;5.07;;;4.10;;
6344;SDS011;3205;42.666;23.264;2023-08-30T10:25:06;9.52;;;4.35;;
6344;SDS011;3205;42.666;23.264;2023-08-30T10:27:36;16.65;;;4.57;;
6344;SDS011;3205;42.666;23.264;2023-08-30T10:30:05;6.72;;;4.30;;
6344;SDS011;3205;42.666;23.264;2023-08-30T10:32:38;8.68;;;4.78;;
6344;SDS011;3205;42.666;23.264;2023-08-30T10:35:05;10.02;;;4.57;;
6344;SDS011;3205;42.666;23.264;2023-08-30T10:37:31;11.20;;;5.13;;
6344;SDS011;3205;42.666;23.264;2023-08-30T10:39:59;7.00;;;4.97;;
6344;SDS011;3205;42.666;23.264;2023-08-30T10:42:26;6.32;;;4.43;;
6344;SDS011;3205;42.666;23.264;2023-08-30T10:44:56;11.07;;;4.50;;
6344;SDS011;3205;42.666;23.264;2023-08-30T10:47:23;11.43;;;5.28;;
6344;SDS011;3205;42.666;23.264;2023-08-30T10:49:53;10.43;;;5.07;;
6344;SDS011;3205;42.666;23.264;2023-08-30T10:52:19;9.20;;;5.15;;
6344;SDS011;3205;42.666;23.264;2023-08-30T10:54:45;7.18;;;4.97;;
6344;SDS011;3205;42.666;23.264;2023-08-30T10:57:15;8.23;;;4.80;;
6344;SDS011;3205;42.666;23.264;2023-08-30T11:02:33;7.13;;;4.38;;
6344;SDS011;3205;42.666;23.264;2023-08-30T11:05:00;6.60;;;4.97;;
6344;SDS011;3205;42.666;23.264;2023-08-30T11:07:28;8.10;;;5.03;;
6344;SDS011;3205;42.666;23.264;2023-08-30T11:09:54;8.90;;;4.97;;
6344;SDS011;3205;42.666;23.264;2023-08-30T11:12:21;8.52;;;4.78;;
6344;SDS011;3205;42.666;23.264;2023-08-30T11:14:47;8.13;;;5.18;;
6344;SDS011;3205;42.666;23.264;2023-08-30T11:17:15;8.45;;;4.60;;
6344;SDS011;3205;42.666;23.264;2023-08-30T11:19:41;9.50;;;4.50;;
6344;SDS011;3205;42.666;23.264;2023-08-30T11:22:08;10.02;;;4.72;;
6344;SDS011;3205;42.666;23.264;2023-08-30T11:24:35;17.38;;;4.93;;
6344;SDS011;3205;42.666;23.264;2023-08-30T11:27:01;6.18;;;4.00;;
6344;SDS011;3205;42.666;23.264;2023-08-30T11:29:27;28.65;;;5.63;;
6344;SDS011;3205;42.666;23.264;2023-08-30T11:31:53;14.07;;;5.50;;
6344;SDS011;3205;42.666;23.264;2023-08-30T11:34:19;10.85;;;4.70;;
6344;SDS011;3205;42.666;23.264;2023-08-30T11:36:47;10.77;;;5.22;;
6344;SDS011;3205;42.666;23.264;2023-08-30T11:39:14;6.40;;;4.75;;
6344;SDS011;3205;42.666;23.264;2023-08-30T11:41:41;5.97;;;4.50;;
6344;SDS011;3205;42.666;23.264;2023-08-30T11:44:08;6.72;;;4.35;;
6344;SDS011;3205;42.666;23.264;2023-08-30T11:46:34;10.48;;;4.13;;
6344;SDS011;3205;42.666;23.264;2023-08-30T11:49:00;8.20;;;4.57;;
6344;SDS011;3205;42.666;23.264;2023-08-30T11:51:28;5.00;;;4.05;;
6344;SDS011;3205;42.666;23.264;2023-08-30T11:53:55;15.50;;;4.40;;
6344;SDS011;3205;42.666;23.264;2023-08-30T11:56:23;8.93;;;4.15;;
6344;SDS011;3205;42.666;23.264;2023-08-30T11:58:49;5.22;;;4.72;;
6344;SDS011;3205;42.666;23.264;2023-08-30T12:01:16;8.30;;;4.78;;
6344;SDS011;3205;42.666;23.264;2023-08-30T12:03:44;10.27;;;4.93;;
6344;SDS011;3205;42.666;23.264;2023-08-30T12:06:15;4.72;;;4.25;;
6344;SDS011;3205;42.666;23.264;2023-08-30T12:08:42;11.40;;;5.35;;
6344;SDS011;3205;42.666;23.264;2023-08-30T12:11:17;5.20;;;4.68;;
6344;SDS011;3205;42.666;23.264;2023-08-30T12:13:45;6.13;;;4.28;;
6344;SDS011;3205;42.666;23.264;2023-08-30T12:16:14;10.82;;;5.03;;
6344;SDS011;3205;42.666;23.264;2023-08-30T12:18:41;7.00;;;4.88;;
6344;SDS011;3205;42.666;23.264;2023-08-30T12:21:08;6.60;;;5.03;;
6344;SDS011;3205;42.666;23.264;2023-08-30T12:23:34;14.30;;;5.47;;
6344;SDS011;3205;42.666;23.264;2023-08-30T12:26:00;8.27;;;4.55;;
6344;SDS011;3205;42.666;23.264;2023-08-30T12:28:29;16.30;;;4.85;;
6344;SDS011;3205;42.666;23.264;2023-08-30T12:30:56;6.75;;;4.65;;
6344;SDS011;3205;42.666;23.264;2023-08-30T12:33:23;8.13;;;4.90;;
6344;SDS011;3205;42.666;23.264;2023-08-30T12:35:50;7.40;;;4.75;;
6344;SDS011;3205;42.666;23.264;2023-08-30T12:38:17;10.60;;;4.78;;
6344;SDS011;3205;42.666;23.264;2023-08-30T12:40:43;6.13;;;4.68;;
6344;SDS011;3205;42.666;23.264;2023-08-30T12:43:11;7.57;;;4.93;;
6344;SDS011;3205;42.666;23.264;2023-08-30T12:45:38;8.27;;;4.63;;
6344;SDS011;3205;42.666;23.264;2023-08-30T12:48:05;7.38;;;4.68;;
6344;SDS011;3205;42.666;23.264;2023-08-30T12:50:42;10.30;;;4.50;;
6344;SDS011;3205;42.666;23.264;2023-08-30T12:53:10;9.68;;;4.65;;
6344;SDS011;3205;42.666;23.264;2023-08-30T12:55:36;10.32;;;5.38;;
6344;SDS011;3205;42.666;23.264;2023-08-30T12:58:04;6.68;;;5.20;;
6344;SDS011;3205;42.666;23.264;2023-08-30T13:00:30;6.07;;;4.97;;
6344;SDS011;3205;42.666;23.264;2023-08-30T13:02:56;9.43;;;5.43;;
6344;SDS011;3205;42.666;23.264;2023-08-30T13:05:23;8.02;;;4.38;;
6344;SDS011;3205;42.666;23.264;2023-08-30T13:07:49;12.52;;;4.35;;
6344;SDS011;3205;42.666;23.264;2023-08-30T13:10:16;7.20;;;3.78;;
6344;SDS011;3205;42.666;23.264;2023-08-30T13:12:42;9.10;;;4.72;;
6344;SDS011;3205;42.666;23.264;2023-08-30T13:15:09;6.47;;;4.57;;
6344;SDS011;3205;42.666;23.264;2023-08-30T13:17:35;5.30;;;4.10;;
6344;SDS011;3205;42.666;23.264;2023-08-30T13:20:02;6.82;;;4.30;;
6344;SDS011;3205;42.666;23.264;2023-08-30T13:22:35;5.35;;;4.10;;
6344;SDS011;3205;42.666;23.264;2023-08-30T13:25:01;7.05;;;4.28;;
6344;SDS011;3205;42.666;23.264;2023-08-30T13:27:28;4.57;;;3.80;;
6344;SDS011;3205;42.666;23.264;2023-08-30T13:29:54;5.25;;;4.35;;
6344;SDS011;3205;42.666;23.264;2023-08-30T13:32:21;12.45;;;4.00;;
6344;SDS011;3205;42.666;23.264;2023-08-30T13:34:47;8.80;;;3.92;;
6344;SDS011;3205;42.666;23.264;2023-08-30T13:37:13;9.25;;;4.22;;
6344;SDS011;3205;42.666;23.264;2023-08-30T13:39:40;5.20;;;4.53;;
6344;SDS011;3205;42.666;23.264;2023-08-30T13:42:06;6.57;;;4.10;;
6344;SDS011;3205;42.666;23.264;2023-08-30T13:44:32;8.68;;;3.97;;
6344;SDS011;3205;42.666;23.264;2023-08-30T13:47:01;8.35;;;4.32;;
6344;SDS011;3205;42.666;23.264;2023-08-30T13:49:27;6.45;;;4.10;;
6344;SDS011;3205;42.666;23.264;2023-08-30T13:51:53;6.55;;;4.20;;
6344;SDS011;3205;42.666;23.264;2023-08-30T13:54:19;4.30;;;3.90;;
6344;SDS011;3205;42.666;23.264;2023-08-30T13:56:46;6.88;;;4.53;;
6344;SDS011;3205;42.666;23.264;2023-08-30T13:59:12;9.18;;;3.90;;
6344;SDS011;3205;42.666;23.264;2023-08-30T14:01:39;5.05;;;4.07;;
6344;SDS011;3205;42.666;23.264;2023-08-30T14:04:05;5.55;;;3.67;;
6344;SDS011;3205;42.666;23.264;2023-08-30T14:06:32;16.65;;;4.72;;
6344;SDS011;3205;42.666;23.264;2023-08-30T14:08:58;13.27;;;3.97;;
6344;SDS011;3205;42.666;23.264;2023-08-30T14:11:24;10.88;;;4.10;;
6344;SDS011;3205;42.666;23.264;2023-08-30T14:13:51;7.50;;;4.40;;
6344;SDS011;3205;42.666;23.264;2023-08-30T14:16:17;5.45;;;4.10;;
6344;SDS011;3205;42.666;23.264;2023-08-30T14:18:43;4.30;;;3.60;;
6344;SDS011;3205;42.666;23.264;2023-08-30T14:21:09;6.03;;;4.00;;
6344;SDS011;3205;42.666;23.264;2023-08-30T14:23:35;4.30;;;3.40;;
6344;SDS011;3205;42.666;23.264;2023-08-30T14:26:02;4.97;;;3.50;;
6344;SDS011;3205;42.666;23.264;2023-08-30T14:28:33;5.97;;;3.20;;
6344;SDS011;3205;42.666;23.264;2023-08-30T14:31:01;6.95;;;3.70;;
6344;SDS011;3205;42.666;23.264;2023-08-30T14:33:29;6.32;;;3.63;;
6344;SDS011;3205;42.666;23.264;2023-08-30T14:35:55;5.03;;;3.60;;
6344;SDS011;3205;42.666;23.264;2023-08-30T14:38:21;7.55;;;3.85;;
6344;SDS011;3205;42.666;23.264;2023-08-30T14:40:53;4.95;;;3.13;;
6344;SDS011;3205;42.666;23.264;2023-08-30T14:43:20;6.60;;;3.55;;
6344;SDS011;3205;42.666;23.264;2023-08-30T14:45:46;6.18;;;3.50;;
6344;SDS011;3205;42.666;23.264;2023-08-30T14:48:13;6.78;;;3.63;;
6344;SDS011;3205;42.666;23.264;2023-08-30T14:50:39;5.30;;;3.17;;
6344;SDS011;3205;42.666;23.264;2023-08-30T14:53:05;3.35;;;2.90;;
6344;SDS011;3205;42.666;23.264;2023-08-30T14:55:32;5.30;;;3.33;;
6344;SDS011;3205;42.666;23.264;2023-08-30T14:57:58;5.88;;;4.00;;
6344;SDS011;3205;42.666;23.264;2023-08-30T15:00:24;5.00;;;3.58;;